sensor_id;sensor_type;location;lat;lon;timestamp;P1;durP1;ratioP1;P2;durP2;ratioP2
41711;SDS011;27399;51.516;13.670;2022-11-20T00:00:49;25.67;;;11.10;;
41711;SDS011;27399;51.516;13.670;2022-11-20T00:03:14;22.42;;;9.07;;
41711;SDS011;27399;51.516;13.670;2022-11-20T00:05:40;21.77;;;9.60;;
41711;SDS011;27399;51.516;13.670;2022-11-20T00:08:05;17.75;;;8.73;;
41711;SDS011;27399;51.516;13.670;2022-11-20T00:10:31;21.73;;;9.52;;
41711;SDS011;27399;51.516;13.670;2022-11-20T00:12:57;20.85;;;9.55;;
41711;SDS011;27399;51.516;13.670;2022-11-20T00:15:23;20.65;;;9.93;;
41711;SDS011;27399;51.516;13.670;2022-11-20T00:17:49;23.48;;;10.98;;
41711;SDS011;27399;51.516;13.670;2022-11-20T00:20:14;22.05;;;10.02;;
41711;SDS011;27399;51.516;13.670;2022-11-20T00:22:40;20.73;;;8.88;;
41711;SDS011;27399;51.516;13.670;2022-11-20T00:25:06;20.02;;;8.85;;
41711;SDS011;27399;51.516;13.670;2022-11-20T00:27:32;24.55;;;10.20;;
41711;SDS011;27399;51.516;13.670;2022-11-20T00:29:57;20.38;;;9.60;;
41711;SDS011;27399;51.516;13.670;2022-11-20T00:32:23;22.42;;;10.18;;
41711;SDS011;27399;51.516;13.670;2022-11-20T00:34:48;24.67;;;9.40;;
41711;SDS011;27399;51.516;13.670;2022-11-20T00:37:14;20.65;;;9.63;;
41711;SDS011;27399;51.516;13.670;2022-11-20T00:39:40;19.60;;;8.98;;
41711;SDS011;27399;51.516;13.670;2022-11-20T00:42:05;26.45;;;10.82;;
41711;SDS011;27399;51.516;13.670;2022-11-20T00:44:31;22.13;;;9.48;;
41711;SDS011;27399;51.516;13.670;2022-11-20T00:46:56;21.50;;;10.25;;
41711;SDS011;27399;51.516;13.670;2022-11-20T00:49:22;23.20;;;11.10;;
41711;SDS011;27399;51.516;13.670;2022-11-20T00:51:48;23.10;;;10.52;;
41711;SDS011;27399;51.516;13.670;2022-11-20T00:54:13;22.92;;;9.25;;
41711;SDS011;27399;51.516;13.670;2022-11-20T00:56:39;25.80;;;10.38;;
41711;SDS011;27399;51.516;13.670;2022-11-20T00:59:05;22.73;;;9.57;;
41711;SDS011;27399;51.516;13.670;2022-11-20T01:01:30;18.55;;;9.02;;
41711;SDS011;27399;51.516;13.670;2022-11-20T01:03:57;22.60;;;10.57;;
41711;SDS011;27399;51.516;13.670;2022-11-20T01:06:31;22.95;;;9.70;;
41711;SDS011;27399;51.516;13.670;2022-11-20T01:09:00;26.88;;;11.27;;
41711;SDS011;27399;51.516;13.670;2022-11-20T01:11:30;21.90;;;9.77;;
41711;SDS011;27399;51.516;13.670;2022-11-20T01:13:57;23.50;;;10.30;;
41711;SDS011;27399;51.516;13.670;2022-11-20T01:16:25;23.08;;;10.57;;
41711;SDS011;27399;51.516;13.670;2022-11-20T01:18:53;22.70;;;9.00;;
41711;SDS011;27399;51.516;13.670;2022-11-20T01:21:22;23.75;;;10.82;;
41711;SDS011;27399;51.516;13.670;2022-11-20T01:23:49;23.65;;;10.93;;
41711;SDS011;27399;51.516;13.670;2022-11-20T01:26:16;20.75;;;9.27;;
41711;SDS011;27399;51.516;13.670;2022-11-20T01:28:43;22.17;;;9.77;;
41711;SDS011;27399;51.516;13.670;2022-11-20T01:31:28;23.95;;;10.45;;
41711;SDS011;27399;51.516;13.670;2022-11-20T01:33:59;20.55;;;9.85;;
41711;SDS011;27399;51.516;13.670;2022-11-20T01:36:28;24.42;;;9.93;;
41711;SDS011;27399;51.516;13.670;2022-11-20T01:38:56;21.48;;;10.73;;
41711;SDS011;27399;51.516;13.670;2022-11-20T01:41:23;23.40;;;10.95;;
41711;SDS011;27399;51.516;13.670;2022-11-20T01:44:10;24.77;;;9.95;;
41711;SDS011;27399;51.516;13.670;2022-11-20T01:46:38;20.88;;;9.38;;
41711;SDS011;27399;51.516;13.670;2022-11-20T01:49:08;26.00;;;10.65;;
41711;SDS011;27399;51.516;13.670;2022-11-20T01:51:42;19.85;;;9.90;;
41711;SDS011;27399;51.516;13.670;2022-11-20T01:54:15;28.25;;;11.35;;
41711;SDS011;27399;51.516;13.670;2022-11-20T01:56:45;26.67;;;11.70;;
41711;SDS011;27399;51.516;13.670;2022-11-20T01:59:13;23.58;;;10.80;;
41711;SDS011;27399;51.516;13.670;2022-11-20T02:01:43;27.90;;;11.70;;
41711;SDS011;27399;51.516;13.670;2022-11-20T02:04:08;26.50;;;10.82;;
41711;SDS011;27399;51.516;13.670;2022-11-20T02:06:36;19.55;;;9.73;;
41711;SDS011;27399;51.516;13.670;2022-11-20T02:09:06;24.77;;;11.00;;
41711;SDS011;27399;51.516;13.670;2022-11-20T02:11:31;23.73;;;10.50;;
41711;SDS011;27399;51.516;13.670;2022-11-20T02:13:57;27.27;;;11.68;;
41711;SDS011;27399;51.516;13.670;2022-11-20T02:16:30;23.67;;;10.18;;
41711;SDS011;27399;51.516;13.670;2022-11-20T02:19:02;20.73;;;9.80;;
41711;SDS011;27399;51.516;13.670;2022-11-20T02:21:35;22.33;;;10.23;;
41711;SDS011;27399;51.516;13.670;2022-11-20T02:24:16;26.77;;;11.88;;
41711;SDS011;27399;51.516;13.670;2022-11-20T02:26:54;27.40;;;11.15;;
41711;SDS011;27399;51.516;13.670;2022-11-20T02:32:04;27.00;;;10.70;;
41711;SDS011;27399;51.516;13.670;2022-11-20T02:34:31;26.33;;;12.30;;
41711;SDS011;27399;51.516;13.670;2022-11-20T02:36:58;21.67;;;10.38;;
41711;SDS011;27399;51.516;13.670;2022-11-20T02:39:25;27.58;;;12.15;;
41711;SDS011;27399;51.516;13.670;2022-11-20T02:41:54;27.05;;;11.02;;
41711;SDS011;27399;51.516;13.670;2022-11-20T02:44:21;25.77;;;11.27;;
41711;SDS011;27399;51.516;13.670;2022-11-20T02:46:46;24.55;;;10.82;;
41711;SDS011;27399;51.516;13.670;2022-11-20T02:49:12;22.63;;;11.25;;
41711;SDS011;27399;51.516;13.670;2022-11-20T02:51:38;29.88;;;11.90;;
41711;SDS011;27399;51.516;13.670;2022-11-20T02:54:03;26.02;;;10.50;;
41711;SDS011;27399;51.516;13.670;2022-11-20T02:56:29;28.80;;;11.88;;
41711;SDS011;27399;51.516;13.670;2022-11-20T02:58:55;28.35;;;10.60;;
41711;SDS011;27399;51.516;13.670;2022-11-20T03:01:21;28.52;;;12.23;;
41711;SDS011;27399;51.516;13.670;2022-11-20T03:03:46;27.38;;;12.70;;
41711;SDS011;27399;51.516;13.670;2022-11-20T03:06:14;29.48;;;12.38;;
41711;SDS011;27399;51.516;13.670;2022-11-20T03:08:41;30.08;;;11.95;;
41711;SDS011;27399;51.516;13.670;2022-11-20T03:11:07;33.22;;;12.27;;
41711;SDS011;27399;51.516;13.670;2022-11-20T03:13:33;25.42;;;12.18;;
41711;SDS011;27399;51.516;13.670;2022-11-20T03:16:04;28.80;;;11.82;;
41711;SDS011;27399;51.516;13.670;2022-11-20T03:18:38;31.25;;;12.68;;
41711;SDS011;27399;51.516;13.670;2022-11-20T03:21:04;30.45;;;12.48;;
41711;SDS011;27399;51.516;13.670;2022-11-20T03:23:30;32.35;;;13.00;;
41711;SDS011;27399;51.516;13.670;2022-11-20T03:26:10;30.25;;;12.85;;
41711;SDS011;27399;51.516;13.670;2022-11-20T03:28:47;27.90;;;12.90;;
41711;SDS011;27399;51.516;13.670;2022-11-20T03:31:15;27.17;;;11.07;;
41711;SDS011;27399;51.516;13.670;2022-11-20T03:33:43;25.73;;;11.05;;
41711;SDS011;27399;51.516;13.670;2022-11-20T03:36:10;33.17;;;14.35;;
41711;SDS011;27399;51.516;13.670;2022-11-20T03:38:37;29.58;;;11.50;;
41711;SDS011;27399;51.516;13.670;2022-11-20T03:41:04;27.75;;;11.30;;
41711;SDS011;27399;51.516;13.670;2022-11-20T03:43:32;30.15;;;11.75;;
41711;SDS011;27399;51.516;13.670;2022-11-20T03:45:58;28.13;;;11.77;;
41711;SDS011;27399;51.516;13.670;2022-11-20T03:48:24;31.67;;;13.25;;
41711;SDS011;27399;51.516;13.670;2022-11-20T03:50:50;29.60;;;13.27;;
41711;SDS011;27399;51.516;13.670;2022-11-20T03:53:16;27.00;;;11.20;;
41711;SDS011;27399;51.516;13.670;2022-11-20T03:55:42;32.47;;;12.90;;
41711;SDS011;27399;51.516;13.670;2022-11-20T03:58:08;29.00;;;12.75;;
41711;SDS011;27399;51.516;13.670;2022-11-20T04:00:34;27.77;;;12.27;;
41711;SDS011;27399;51.516;13.670;2022-11-20T04:03:01;31.67;;;12.75;;
41711;SDS011;27399;51.516;13.670;2022-11-20T04:05:27;27.65;;;11.98;;
41711;SDS011;27399;51.516;13.670;2022-11-20T04:07:53;27.77;;;11.63;;
41711;SDS011;27399;51.516;13.670;2022-11-20T04:10:19;28.25;;;11.93;;
41711;SDS011;27399;51.516;13.670;2022-11-20T04:12:45;28.70;;;11.85;;
41711;SDS011;27399;51.516;13.670;2022-11-20T04:15:10;28.17;;;10.93;;
41711;SDS011;27399;51.516;13.670;2022-11-20T04:17:36;26.40;;;11.88;;
41711;SDS011;27399;51.516;13.670;2022-11-20T04:20:02;27.75;;;11.32;;
41711;SDS011;27399;51.516;13.670;2022-11-20T04:22:28;31.25;;;14.05;;
41711;SDS011;27399;51.516;13.670;2022-11-20T04:24:54;27.55;;;11.85;;
41711;SDS011;27399;51.516;13.670;2022-11-20T04:27:19;28.38;;;11.65;;
41711;SDS011;27399;51.516;13.670;2022-11-20T04:29:45;29.15;;;11.10;;
41711;SDS011;27399;51.516;13.670;2022-11-20T04:32:11;29.58;;;10.63;;
41711;SDS011;27399;51.516;13.670;2022-11-20T04:34:37;29.85;;;11.90;;
41711;SDS011;27399;51.516;13.670;2022-11-20T04:37:02;31.23;;;11.82;;
41711;SDS011;27399;51.516;13.670;2022-11-20T04:39:28;30.67;;;11.05;;
41711;SDS011;27399;51.516;13.670;2022-11-20T04:41:53;28.50;;;11.85;;
41711;SDS011;27399;51.516;13.670;2022-11-20T04:44:39;28.83;;;11.50;;
41711;SDS011;27399;51.516;13.670;2022-11-20T04:47:04;23.48;;;9.85;;
41711;SDS011;27399;51.516;13.670;2022-11-20T04:49:30;26.55;;;11.18;;
41711;SDS011;27399;51.516;13.670;2022-11-20T04:51:56;24.63;;;10.77;;
41711;SDS011;27399;51.516;13.670;2022-11-20T04:54:22;25.30;;;10.50;;
41711;SDS011;27399;51.516;13.670;2022-11-20T04:56:48;26.20;;;11.35;;
41711;SDS011;27399;51.516;13.670;2022-11-20T04:59:15;25.08;;;11.43;;
41711;SDS011;27399;51.516;13.670;2022-11-20T05:01:41;28.30;;;10.48;;
41711;SDS011;27399;51.516;13.670;2022-11-20T05:04:06;27.83;;;11.30;;
41711;SDS011;27399;51.516;13.670;2022-11-20T05:06:32;27.90;;;10.50;;
41711;SDS011;27399;51.516;13.670;2022-11-20T05:08:58;21.83;;;10.55;;
41711;SDS011;27399;51.516;13.670;2022-11-20T05:11:23;26.90;;;11.20;;
41711;SDS011;27399;51.516;13.670;2022-11-20T05:13:50;27.45;;;11.27;;
41711;SDS011;27399;51.516;13.670;2022-11-20T05:16:20;24.65;;;10.65;;
41711;SDS011;27399;51.516;13.670;2022-11-20T05:21:13;32.72;;;10.90;;
41711;SDS011;27399;51.516;13.670;2022-11-20T05:23:39;24.67;;;10.07;;
41711;SDS011;27399;51.516;13.670;2022-11-20T05:26:06;28.17;;;11.68;;
41711;SDS011;27399;51.516;13.670;2022-11-20T05:28:33;28.02;;;11.20;;
41711;SDS011;27399;51.516;13.670;2022-11-20T05:31:06;27.88;;;11.25;;
41711;SDS011;27399;51.516;13.670;2022-11-20T05:33:39;27.95;;;11.02;;
41711;SDS011;27399;51.516;13.670;2022-11-20T05:36:05;20.92;;;8.93;;
41711;SDS011;27399;51.516;13.670;2022-11-20T05:38:31;23.02;;;9.60;;
41711;SDS011;27399;51.516;13.670;2022-11-20T05:41:07;22.50;;;10.05;;
41711;SDS011;27399;51.516;13.670;2022-11-20T05:43:40;25.15;;;10.43;;
41711;SDS011;27399;51.516;13.670;2022-11-20T05:46:07;29.73;;;11.95;;
41711;SDS011;27399;51.516;13.670;2022-11-20T05:48:34;29.58;;;11.40;;
41711;SDS011;27399;51.516;13.670;2022-11-20T05:51:00;27.38;;;10.70;;
41711;SDS011;27399;51.516;13.670;2022-11-20T05:53:28;25.38;;;11.43;;
41711;SDS011;27399;51.516;13.670;2022-11-20T05:55:57;26.38;;;10.48;;
41711;SDS011;27399;51.516;13.670;2022-11-20T05:58:24;29.20;;;11.18;;
41711;SDS011;27399;51.516;13.670;2022-11-20T06:00:50;25.35;;;10.57;;
41711;SDS011;27399;51.516;13.670;2022-11-20T06:03:15;25.60;;;10.45;;
41711;SDS011;27399;51.516;13.670;2022-11-20T06:05:41;29.02;;;10.23;;
41711;SDS011;27399;51.516;13.670;2022-11-20T06:08:06;27.83;;;10.45;;
41711;SDS011;27399;51.516;13.670;2022-11-20T06:10:32;23.98;;;10.75;;
41711;SDS011;27399;51.516;13.670;2022-11-20T06:12:58;23.80;;;10.40;;
41711;SDS011;27399;51.516;13.670;2022-11-20T06:15:23;24.05;;;9.73;;
41711;SDS011;27399;51.516;13.670;2022-11-20T06:17:52;24.20;;;10.55;;
41711;SDS011;27399;51.516;13.670;2022-11-20T06:20:19;28.25;;;11.98;;
41711;SDS011;27399;51.516;13.670;2022-11-20T06:22:45;24.30;;;9.32;;
41711;SDS011;27399;51.516;13.670;2022-11-20T06:25:10;25.48;;;11.25;;
41711;SDS011;27399;51.516;13.670;2022-11-20T06:27:36;24.88;;;9.95;;
41711;SDS011;27399;51.516;13.670;2022-11-20T06:30:02;27.83;;;10.85;;
41711;SDS011;27399;51.516;13.670;2022-11-20T06:32:28;26.00;;;11.02;;
41711;SDS011;27399;51.516;13.670;2022-11-20T06:34:54;23.95;;;10.63;;
41711;SDS011;27399;51.516;13.670;2022-11-20T06:37:19;29.77;;;10.35;;
41711;SDS011;27399;51.516;13.670;2022-11-20T06:39:45;24.20;;;10.00;;
41711;SDS011;27399;51.516;13.670;2022-11-20T06:42:11;26.77;;;11.02;;
41711;SDS011;27399;51.516;13.670;2022-11-20T06:44:36;23.80;;;10.05;;
41711;SDS011;27399;51.516;13.670;2022-11-20T06:47:02;25.95;;;10.63;;
41711;SDS011;27399;51.516;13.670;2022-11-20T06:49:27;27.75;;;10.48;;
41711;SDS011;27399;51.516;13.670;2022-11-20T06:51:53;26.58;;;10.68;;
41711;SDS011;27399;51.516;13.670;2022-11-20T06:54:18;28.95;;;11.55;;
41711;SDS011;27399;51.516;13.670;2022-11-20T06:56:47;27.85;;;11.98;;
41711;SDS011;27399;51.516;13.670;2022-11-20T06:59:13;25.80;;;10.70;;
41711;SDS011;27399;51.516;13.670;2022-11-20T07:01:38;25.98;;;10.68;;
41711;SDS011;27399;51.516;13.670;2022-11-20T07:04:04;25.70;;;10.07;;
41711;SDS011;27399;51.516;13.670;2022-11-20T07:06:29;27.35;;;9.98;;
41711;SDS011;27399;51.516;13.670;2022-11-20T07:08:55;24.13;;;10.10;;
41711;SDS011;27399;51.516;13.670;2022-11-20T07:11:22;28.92;;;11.20;;
41711;SDS011;27399;51.516;13.670;2022-11-20T07:13:48;26.17;;;10.52;;
41711;SDS011;27399;51.516;13.670;2022-11-20T07:16:13;26.75;;;10.95;;
41711;SDS011;27399;51.516;13.670;2022-11-20T07:18:39;26.02;;;11.10;;
41711;SDS011;27399;51.516;13.670;2022-11-20T07:21:08;26.00;;;10.38;;
41711;SDS011;27399;51.516;13.670;2022-11-20T07:23:36;30.15;;;11.85;;
41711;SDS011;27399;51.516;13.670;2022-11-20T07:26:02;26.50;;;11.57;;
41711;SDS011;27399;51.516;13.670;2022-11-20T07:28:29;26.00;;;11.30;;
41711;SDS011;27399;51.516;13.670;2022-11-20T07:30:55;31.23;;;12.60;;
41711;SDS011;27399;51.516;13.670;2022-11-20T07:33:20;28.40;;;11.35;;
41711;SDS011;27399;51.516;13.670;2022-11-20T07:35:46;29.00;;;10.95;;
41711;SDS011;27399;51.516;13.670;2022-11-20T07:38:12;31.63;;;11.65;;
41711;SDS011;27399;51.516;13.670;2022-11-20T07:40:37;36.50;;;12.75;;
41711;SDS011;27399;51.516;13.670;2022-11-20T07:43:03;29.88;;;12.73;;
41711;SDS011;27399;51.516;13.670;2022-11-20T07:45:29;28.98;;;11.88;;
41711;SDS011;27399;51.516;13.670;2022-11-20T07:47:54;28.70;;;11.68;;
41711;SDS011;27399;51.516;13.670;2022-11-20T07:50:20;30.58;;;12.40;;
41711;SDS011;27399;51.516;13.670;2022-11-20T07:52:46;30.52;;;12.07;;
41711;SDS011;27399;51.516;13.670;2022-11-20T07:55:12;28.15;;;10.90;;
41711;SDS011;27399;51.516;13.670;2022-11-20T07:57:38;31.90;;;12.32;;
41711;SDS011;27399;51.516;13.670;2022-11-20T08:00:04;32.80;;;10.85;;
41711;SDS011;27399;51.516;13.670;2022-11-20T08:02:32;28.20;;;11.65;;
41711;SDS011;27399;51.516;13.670;2022-11-20T08:04:57;33.80;;;11.65;;
41711;SDS011;27399;51.516;13.670;2022-11-20T08:07:23;27.05;;;12.00;;
41711;SDS011;27399;51.516;13.670;2022-11-20T08:09:48;28.85;;;10.88;;
41711;SDS011;27399;51.516;13.670;2022-11-20T08:12:18;30.25;;;11.75;;
41711;SDS011;27399;51.516;13.670;2022-11-20T08:15:03;25.90;;;10.73;;
41711;SDS011;27399;51.516;13.670;2022-11-20T08:17:30;27.77;;;10.73;;
41711;SDS011;27399;51.516;13.670;2022-11-20T08:19:56;24.75;;;10.68;;
41711;SDS011;27399;51.516;13.670;2022-11-20T08:22:21;28.23;;;12.35;;
41711;SDS011;27399;51.516;13.670;2022-11-20T08:24:47;28.52;;;10.80;;
41711;SDS011;27399;51.516;13.670;2022-11-20T08:27:13;28.45;;;11.75;;
41711;SDS011;27399;51.516;13.670;2022-11-20T08:29:39;29.60;;;10.65;;
41711;SDS011;27399;51.516;13.670;2022-11-20T08:32:04;25.85;;;10.38;;
41711;SDS011;27399;51.516;13.670;2022-11-20T08:34:30;27.52;;;10.65;;
41711;SDS011;27399;51.516;13.670;2022-11-20T08:36:55;27.73;;;11.50;;
41711;SDS011;27399;51.516;13.670;2022-11-20T08:39:21;25.02;;;10.15;;
41711;SDS011;27399;51.516;13.670;2022-11-20T08:41:47;27.75;;;11.00;;
41711;SDS011;27399;51.516;13.670;2022-11-20T08:44:12;28.23;;;10.43;;
41711;SDS011;27399;51.516;13.670;2022-11-20T08:46:39;28.35;;;11.00;;
41711;SDS011;27399;51.516;13.670;2022-11-20T08:49:10;26.77;;;11.60;;
41711;SDS011;27399;51.516;13.670;2022-11-20T08:51:37;29.60;;;11.48;;
41711;SDS011;27399;51.516;13.670;2022-11-20T08:54:03;23.27;;;9.80;;
41711;SDS011;27399;51.516;13.670;2022-11-20T08:56:30;30.50;;;11.88;;
41711;SDS011;27399;51.516;13.670;2022-11-20T08:58:56;30.75;;;11.10;;
41711;SDS011;27399;51.516;13.670;2022-11-20T09:01:22;29.10;;;11.93;;
41711;SDS011;27399;51.516;13.670;2022-11-20T09:03:48;27.00;;;11.38;;
41711;SDS011;27399;51.516;13.670;2022-11-20T09:06:14;30.38;;;11.05;;
41711;SDS011;27399;51.516;13.670;2022-11-20T09:08:41;27.40;;;11.55;;
41711;SDS011;27399;51.516;13.670;2022-11-20T09:11:07;23.83;;;11.85;;
41711;SDS011;27399;51.516;13.670;2022-11-20T09:13:34;22.38;;;9.98;;
41711;SDS011;27399;51.516;13.670;2022-11-20T09:16:01;28.38;;;11.20;;
41711;SDS011;27399;51.516;13.670;2022-11-20T09:18:30;25.97;;;10.40;;
41711;SDS011;27399;51.516;13.670;2022-11-20T09:21:00;23.67;;;9.45;;
41711;SDS011;27399;51.516;13.670;2022-11-20T09:25:56;30.45;;;10.07;;
41711;SDS011;27399;51.516;13.670;2022-11-20T09:28:25;27.55;;;9.95;;
41711;SDS011;27399;51.516;13.670;2022-11-20T09:30:51;21.98;;;9.18;;
41711;SDS011;27399;51.516;13.670;2022-11-20T09:33:17;22.13;;;8.35;;
41711;SDS011;27399;51.516;13.670;2022-11-20T09:35:43;23.88;;;10.13;;
41711;SDS011;27399;51.516;13.670;2022-11-20T09:38:09;18.70;;;8.45;;
41711;SDS011;27399;51.516;13.670;2022-11-20T09:40:37;15.48;;;6.72;;
41711;SDS011;27399;51.516;13.670;2022-11-20T09:48:15;15.82;;;6.78;;
41711;SDS011;27399;51.516;13.670;2022-11-20T09:53:39;17.77;;;7.80;;
41711;SDS011;27399;51.516;13.670;2022-11-20T09:58:55;17.75;;;7.40;;
41711;SDS011;27399;51.516;13.670;2022-11-20T10:01:26;19.00;;;7.63;;
41711;SDS011;27399;51.516;13.670;2022-11-20T10:06:31;14.48;;;6.82;;
41711;SDS011;27399;51.516;13.670;2022-11-20T10:11:58;17.58;;;7.70;;
41711;SDS011;27399;51.516;13.670;2022-11-20T10:14:38;16.75;;;7.22;;
41711;SDS011;27399;51.516;13.670;2022-11-20T10:17:23;16.70;;;7.03;;
41711;SDS011;27399;51.516;13.670;2022-11-20T10:20:06;17.27;;;7.18;;
41711;SDS011;27399;51.516;13.670;2022-11-20T10:31:00;21.10;;;7.65;;
41711;SDS011;27399;51.516;13.670;2022-11-20T10:33:31;18.08;;;8.18;;
41711;SDS011;27399;51.516;13.670;2022-11-20T10:36:05;17.23;;;7.35;;
41711;SDS011;27399;51.516;13.670;2022-11-20T10:41:23;17.27;;;7.78;;
41711;SDS011;27399;51.516;13.670;2022-11-20T10:47:04;17.48;;;7.18;;
41711;SDS011;27399;51.516;13.670;2022-11-20T10:49:37;17.48;;;7.57;;
41711;SDS011;27399;51.516;13.670;2022-11-20T11:02:24;19.67;;;8.23;;
41711;SDS011;27399;51.516;13.670;2022-11-20T11:04:58;17.77;;;7.28;;
41711;SDS011;27399;51.516;13.670;2022-11-20T11:07:36;19.10;;;7.93;;
41711;SDS011;27399;51.516;13.670;2022-11-20T11:10:27;15.60;;;7.35;;
41711;SDS011;27399;51.516;13.670;2022-11-20T11:13:21;14.20;;;6.78;;
41711;SDS011;27399;51.516;13.670;2022-11-20T11:15:51;15.45;;;7.22;;
41711;SDS011;27399;51.516;13.670;2022-11-20T11:18:24;16.50;;;7.05;;
41711;SDS011;27399;51.516;13.670;2022-11-20T11:20:56;17.25;;;7.13;;
41711;SDS011;27399;51.516;13.670;2022-11-20T11:23:43;16.95;;;7.30;;
41711;SDS011;27399;51.516;13.670;2022-11-20T11:26:21;18.48;;;7.65;;
41711;SDS011;27399;51.516;13.670;2022-11-20T11:28:58;16.85;;;7.32;;
41711;SDS011;27399;51.516;13.670;2022-11-20T11:31:26;18.13;;;8.25;;
41711;SDS011;27399;51.516;13.670;2022-11-20T11:34:03;17.23;;;7.28;;
41711;SDS011;27399;51.516;13.670;2022-11-20T11:36:34;18.67;;;8.35;;
41711;SDS011;27399;51.516;13.670;2022-11-20T11:39:00;18.13;;;8.32;;
41711;SDS011;27399;51.516;13.670;2022-11-20T11:41:28;22.35;;;7.70;;
41711;SDS011;27399;51.516;13.670;2022-11-20T11:44:00;20.42;;;7.88;;
41711;SDS011;27399;51.516;13.670;2022-11-20T11:46:58;19.55;;;8.52;;
41711;SDS011;27399;51.516;13.670;2022-11-20T11:49:24;17.63;;;7.90;;
41711;SDS011;27399;51.516;13.670;2022-11-20T11:54:52;15.70;;;7.97;;
41711;SDS011;27399;51.516;13.670;2022-11-20T11:57:28;16.10;;;7.20;;
41711;SDS011;27399;51.516;13.670;2022-11-20T12:07:45;17.30;;;7.90;;
41711;SDS011;27399;51.516;13.670;2022-11-20T12:11:03;19.73;;;8.23;;
41711;SDS011;27399;51.516;13.670;2022-11-20T12:16:04;17.48;;;8.50;;
41711;SDS011;27399;51.516;13.670;2022-11-20T12:18:30;20.48;;;9.05;;
41711;SDS011;27399;51.516;13.670;2022-11-20T12:31:42;18.58;;;8.43;;
41711;SDS011;27399;51.516;13.670;2022-11-20T12:34:14;18.63;;;8.65;;
41711;SDS011;27399;51.516;13.670;2022-11-20T12:37:18;19.08;;;8.13;;
41711;SDS011;27399;51.516;13.670;2022-11-20T12:39:50;19.38;;;8.93;;
41711;SDS011;27399;51.516;13.670;2022-11-20T12:45:26;22.88;;;8.80;;
41711;SDS011;27399;51.516;13.670;2022-11-20T13:08:16;22.48;;;10.15;;
41711;SDS011;27399;51.516;13.670;2022-11-20T13:10:54;18.92;;;8.85;;
41711;SDS011;27399;51.516;13.670;2022-11-20T13:16:07;23.40;;;9.77;;
41711;SDS011;27399;51.516;13.670;2022-11-20T13:18:41;23.17;;;10.55;;
41711;SDS011;27399;51.516;13.670;2022-11-20T13:23:47;24.73;;;10.88;;
41711;SDS011;27399;51.516;13.670;2022-11-20T13:26:17;24.50;;;11.40;;
41711;SDS011;27399;51.516;13.670;2022-11-20T13:28:47;25.90;;;11.75;;
41711;SDS011;27399;51.516;13.670;2022-11-20T13:31:34;25.70;;;10.88;;
41711;SDS011;27399;51.516;13.670;2022-11-20T13:34:03;23.83;;;10.00;;
41711;SDS011;27399;51.516;13.670;2022-11-20T13:36:31;21.52;;;9.95;;
41711;SDS011;27399;51.516;13.670;2022-11-20T13:38:57;25.30;;;10.63;;
41711;SDS011;27399;51.516;13.670;2022-11-20T13:43:59;22.08;;;10.00;;
41711;SDS011;27399;51.516;13.670;2022-11-20T13:46:38;24.33;;;10.23;;
41711;SDS011;27399;51.516;13.670;2022-11-20T13:49:10;22.27;;;10.07;;
41711;SDS011;27399;51.516;13.670;2022-11-20T13:51:50;21.23;;;9.82;;
41711;SDS011;27399;51.516;13.670;2022-11-20T13:54:35;25.10;;;11.15;;
41711;SDS011;27399;51.516;13.670;2022-11-20T14:00:22;24.70;;;11.05;;
41711;SDS011;27399;51.516;13.670;2022-11-20T14:02:59;24.48;;;10.52;;
41711;SDS011;27399;51.516;13.670;2022-11-20T14:05:31;22.10;;;10.57;;
41711;SDS011;27399;51.516;13.670;2022-11-20T14:08:03;20.42;;;9.90;;
41711;SDS011;27399;51.516;13.670;2022-11-20T14:10:31;21.83;;;10.02;;
41711;SDS011;27399;51.516;13.670;2022-11-20T14:12:57;25.27;;;12.18;;
41711;SDS011;27399;51.516;13.670;2022-11-20T14:17:58;25.85;;;11.85;;
41711;SDS011;27399;51.516;13.670;2022-11-20T14:20:29;23.42;;;9.88;;
41711;SDS011;27399;51.516;13.670;2022-11-20T14:22:56;22.67;;;10.43;;
41711;SDS011;27399;51.516;13.670;2022-11-20T14:25:23;21.98;;;9.98;;
41711;SDS011;27399;51.516;13.670;2022-11-20T14:27:58;23.85;;;10.90;;
41711;SDS011;27399;51.516;13.670;2022-11-20T14:30:36;19.63;;;8.80;;
41711;SDS011;27399;51.516;13.670;2022-11-20T14:33:12;22.75;;;10.48;;
41711;SDS011;27399;51.516;13.670;2022-11-20T14:38:18;23.80;;;9.85;;
41711;SDS011;27399;51.516;13.670;2022-11-20T14:40:48;25.15;;;10.13;;
41711;SDS011;27399;51.516;13.670;2022-11-20T14:43:27;22.60;;;8.85;;
41711;SDS011;27399;51.516;13.670;2022-11-20T14:45:57;19.13;;;9.10;;
41711;SDS011;27399;51.516;13.670;2022-11-20T14:48:32;17.05;;;8.18;;
41711;SDS011;27399;51.516;13.670;2022-11-20T14:51:03;18.00;;;8.32;;
41711;SDS011;27399;51.516;13.670;2022-11-20T14:53:29;20.45;;;8.68;;
41711;SDS011;27399;51.516;13.670;2022-11-20T14:55:55;20.50;;;7.85;;
41711;SDS011;27399;51.516;13.670;2022-11-20T14:58:27;15.23;;;7.05;;
41711;SDS011;27399;51.516;13.670;2022-11-20T15:00:58;18.38;;;6.50;;
41711;SDS011;27399;51.516;13.670;2022-11-20T15:03:36;17.67;;;8.20;;
41711;SDS011;27399;51.516;13.670;2022-11-20T15:06:03;14.68;;;7.03;;
41711;SDS011;27399;51.516;13.670;2022-11-20T15:08:30;15.77;;;7.80;;
41711;SDS011;27399;51.516;13.670;2022-11-20T15:10:56;16.77;;;7.68;;
41711;SDS011;27399;51.516;13.670;2022-11-20T15:13:24;15.75;;;6.35;;
41711;SDS011;27399;51.516;13.670;2022-11-20T15:15:55;14.98;;;6.68;;
41711;SDS011;27399;51.516;13.670;2022-11-20T15:18:31;14.38;;;7.00;;
41711;SDS011;27399;51.516;13.670;2022-11-20T15:21:02;16.08;;;7.03;;
41711;SDS011;27399;51.516;13.670;2022-11-20T15:23:29;14.02;;;6.93;;
41711;SDS011;27399;51.516;13.670;2022-11-20T15:25:55;19.83;;;8.55;;
41711;SDS011;27399;51.516;13.670;2022-11-20T15:28:23;14.60;;;7.07;;
41711;SDS011;27399;51.516;13.670;2022-11-20T15:30:55;19.67;;;8.20;;
41711;SDS011;27399;51.516;13.670;2022-11-20T15:33:21;33.90;;;12.00;;
41711;SDS011;27399;51.516;13.670;2022-11-20T15:35:47;19.95;;;8.27;;
41711;SDS011;27399;51.516;13.670;2022-11-20T15:38:13;17.35;;;7.30;;
41711;SDS011;27399;51.516;13.670;2022-11-20T15:40:39;16.20;;;7.28;;
41711;SDS011;27399;51.516;13.670;2022-11-20T15:43:04;19.73;;;7.05;;
41711;SDS011;27399;51.516;13.670;2022-11-20T15:45:46;14.80;;;6.78;;
41711;SDS011;27399;51.516;13.670;2022-11-20T15:48:15;14.88;;;6.97;;
41711;SDS011;27399;51.516;13.670;2022-11-20T15:50:56;17.92;;;7.75;;
41711;SDS011;27399;51.516;13.670;2022-11-20T15:53:25;17.38;;;7.90;;
41711;SDS011;27399;51.516;13.670;2022-11-20T15:55:50;18.08;;;7.88;;
41711;SDS011;27399;51.516;13.670;2022-11-20T15:58:16;16.38;;;6.97;;
41711;SDS011;27399;51.516;13.670;2022-11-20T16:00:42;17.67;;;6.80;;
41711;SDS011;27399;51.516;13.670;2022-11-20T16:03:11;15.13;;;6.95;;
41711;SDS011;27399;51.516;13.670;2022-11-20T16:05:38;12.88;;;6.65;;
41711;SDS011;27399;51.516;13.670;2022-11-20T16:08:04;15.68;;;7.38;;
41711;SDS011;27399;51.516;13.670;2022-11-20T16:10:29;15.63;;;6.95;;
41711;SDS011;27399;51.516;13.670;2022-11-20T16:12:55;12.32;;;6.28;;
41711;SDS011;27399;51.516;13.670;2022-11-20T16:15:39;17.52;;;7.90;;